createdAt,value
2022-08-20T11:58:33.896Z,9.63
2022-08-20T12:01:11.438Z,9.35
2022-08-20T12:03:52.831Z,8.07
2022-08-20T12:06:38.341Z,10.05
2022-08-20T12:09:22.982Z,9.98
2022-08-20T12:12:06.401Z,8.75
2022-08-20T12:14:52.179Z,7.70
2022-08-20T12:17:36.612Z,9.32
2022-08-20T12:23:01.997Z,7.20
2022-08-20T12:28:25.807Z,7.15
2022-08-20T12:31:21.703Z,8.05
2022-08-20T12:34:10.274Z,8.45
2022-08-20T12:36:49.950Z,7.95
2022-08-20T12:39:34.819Z,8.65
2022-08-20T12:47:53.014Z,8.13
2022-08-20T12:50:40.670Z,8.20
2022-08-20T12:53:53.731Z,7.35
2022-08-20T12:56:29.066Z,8.35
2022-08-20T12:59:22.994Z,7.95
2022-08-20T13:02:00.058Z,7.80
2022-08-20T13:04:56.066Z,9.73
2022-08-20T13:10:15.189Z,7.20
2022-08-20T13:12:50.670Z,8.02
2022-08-20T13:15:29.460Z,8.03
2022-08-20T13:18:14.121Z,8.45
2022-08-20T13:20:53.255Z,7.13
2022-08-20T13:23:32.726Z,8.97
2022-08-20T13:26:09.272Z,7.47
2022-08-20T13:28:44.086Z,7.20
2022-08-20T13:31:22.948Z,6.65
2022-08-20T13:34:28.064Z,5.60
2022-08-20T13:40:00.284Z,4.00
2022-08-20T13:42:40.281Z,3.95
2022-08-20T13:45:28.183Z,4.17
2022-08-20T13:50:51.951Z,3.45
2022-08-20T13:53:40.932Z,3.47
2022-08-20T13:56:21.795Z,3.88
2022-08-20T13:59:04.248Z,3.58
2022-08-20T14:01:41.561Z,5.28
2022-08-20T14:07:33.147Z,4.50
2022-08-20T14:10:08.067Z,4.70
2022-08-20T14:12:52.098Z,5.00
2022-08-20T14:15:33.850Z,4.82
2022-08-20T14:18:11.282Z,4.50
2022-08-20T14:24:08.964Z,4.05
2022-08-20T14:26:43.943Z,3.75
2022-08-20T14:29:24.828Z,3.53
2022-08-20T14:32:03.662Z,3.00
2022-08-20T14:34:53.374Z,3.40
2022-08-20T14:37:31.364Z,3.25
2022-08-20T14:40:17.290Z,3.55
2022-08-20T14:45:37.572Z,3.37
2022-08-20T14:48:17.637Z,3.70
2022-08-20T14:51:01.432Z,3.60
2022-08-20T14:53:49.402Z,3.92
2022-08-20T14:59:07.117Z,3.40
2022-08-20T15:01:59.293Z,3.33
2022-08-20T15:04:43.308Z,3.58
2022-08-20T15:07:29.072Z,2.97
2022-08-20T15:10:18.251Z,3.17
2022-08-20T15:12:55.699Z,3.17
2022-08-20T15:15:40.871Z,2.97
2022-08-20T15:21:10.125Z,3.45
2022-08-20T15:23:56.609Z,3.25
2022-08-20T15:29:22.644Z,3.25
2022-08-20T15:32:05.654Z,3.17
2022-08-20T15:34:43.400Z,3.40
2022-08-20T15:37:23.672Z,2.90
2022-08-20T15:42:46.597Z,2.90
2022-08-20T15:45:32.442Z,2.60
2022-08-20T15:48:31.186Z,3.15
2022-08-20T15:51:31.088Z,3.38
2022-08-20T15:54:06.232Z,2.90
2022-08-20T15:56:59.587Z,2.70
2022-08-20T15:59:45.196Z,2.78
2022-08-20T16:10:58.695Z,3.15
2022-08-20T16:13:38.977Z,3.10
2022-08-20T16:16:44.809Z,3.08
2022-08-20T16:19:21.051Z,2.40
2022-08-20T16:21:58.340Z,2.80
2022-08-20T16:24:42.376Z,2.50
2022-08-20T16:27:47.624Z,2.50
2022-08-20T16:30:29.777Z,2.30
2022-08-20T16:33:18.517Z,2.10
2022-08-20T16:35:52.248Z,2.50
2022-08-20T16:39:03.645Z,2.97
2022-08-20T16:44:14.142Z,2.17
2022-08-20T16:46:59.555Z,2.00
2022-08-20T16:50:01.031Z,2.55
2022-08-20T16:55:26.921Z,2.10
2022-08-20T16:58:13.267Z,2.30
2022-08-20T17:01:14.009Z,2.05
2022-08-20T17:03:54.969Z,1.75
2022-08-20T17:06:48.900Z,2.03
2022-08-20T17:09:56.278Z,1.70
2022-08-20T17:12:39.554Z,2.35
2022-08-20T17:15:20.792Z,2.03
2022-08-20T17:18:24.106Z,2.10
2022-08-20T17:24:40.922Z,1.70
2022-08-20T17:27:16.332Z,1.75
2022-08-20T17:30:01.973Z,1.50
2022-08-20T17:35:36.174Z,1.70
2022-08-20T17:38:56.982Z,1.60
2022-08-20T17:41:39.967Z,2.07
2022-08-20T17:50:02.587Z,1.80
2022-08-20T17:52:59.419Z,1.98
2022-08-20T17:55:34.374Z,1.75
2022-08-20T17:58:12.694Z,2.10
2022-08-20T18:00:55.470Z,1.77
2022-08-20T18:03:32.960Z,1.50
2022-08-20T18:06:18.283Z,2.25
2022-08-20T18:11:34.518Z,1.80
2022-08-20T18:14:38.228Z,1.90
2022-08-20T18:17:13.609Z,2.00
2022-08-20T18:19:47.870Z,1.90
2022-08-20T18:22:38.519Z,1.92
2022-08-20T18:25:14.123Z,1.97
2022-08-20T18:27:56.174Z,2.20
2022-08-20T18:30:38.512Z,1.80
2022-08-20T18:33:15.492Z,2.00
2022-08-20T18:36:07.642Z,2.10
2022-08-20T18:41:28.779Z,1.95
2022-08-20T18:44:13.593Z,2.50
2022-08-20T18:47:05.412Z,2.20
2022-08-20T18:49:40.986Z,1.80
2022-08-20T18:52:28.007Z,2.33
2022-08-20T18:55:06.126Z,2.20
2022-08-20T18:57:56.458Z,1.70
2022-08-20T19:00:31.160Z,2.45
2022-08-20T19:03:16.249Z,2.40
2022-08-20T19:05:53.971Z,2.25
2022-08-20T19:08:49.579Z,2.10
2022-08-20T19:11:36.891Z,2.37
2022-08-20T19:14:33.828Z,2.20
2022-08-20T19:20:04.140Z,2.10
2022-08-20T19:22:49.972Z,1.83
2022-08-20T19:25:28.444Z,2.27
2022-08-20T19:28:05.082Z,2.28
2022-08-20T19:30:44.438Z,2.47
2022-08-20T19:33:44.257Z,1.97
2022-08-20T19:36:22.167Z,2.78
2022-08-20T19:39:08.878Z,3.20
2022-08-20T19:41:44.149Z,2.50
2022-08-20T19:44:26.288Z,3.05
2022-08-20T19:47:01.186Z,2.40
2022-08-20T19:49:58.743Z,2.70
2022-08-20T19:52:38.197Z,2.30
2022-08-20T19:55:23.586Z,2.20
2022-08-20T19:58:16.797Z,2.25
2022-08-20T20:06:51.754Z,2.60
2022-08-20T20:09:29.083Z,2.30
2022-08-20T20:12:21.541Z,2.47
